Time,TemperatureF,DewpointF,PressureIn,WindDirection,WindDirectionDegrees,WindSpeedMPH,WindSpeedGustMPH,Humidity,HourlyPrecipIn,Conditions,Clouds,dailyrainin,SoftwareType,DateUTC
2013-09-04 00:08:00,68.7,63.0,30.00,WSW,255,0.0,-999.0,81,-99.99,,,0.00,weatherlink.com 1.10,2013-09-04 04:08:00,
2013-09-04 00:23:00,68.2,63.0,30.00,WSW,255,0.0,-999.0,82,-99.99,,,0.00,weatherlink.com 1.10,2013-09-04 04:23:00,
2013-09-04 00:38:00,67.8,63.0,29.99,WSW,258,0.0,-999.0,83,-99.99,,,0.00,weatherlink.com 1.10,2013-09-04 04:38:00,
2013-09-04 00:53:00,67.8,62.0,29.99,WSW,253,0.0,-999.0,82,-99.99,,,0.00,weatherlink.com 1.10,2013-09-04 04:53:00,
2013-09-04 01:08:00,67.4,62.0,29.99,WSW,253,0.0,-999.0,83,-99.99,,,0.00,weatherlink.com 1.10,2013-09-04 05:08:00,
2013-09-04 01:23:00,67.4,62.0,30.00,West,260,0.0,-999.0,83,-99.99,,,0.00,weatherlink.com 1.10,2013-09-04 05:23:00,
2013-09-04 01:38:00,67.2,62.0,30.00,WSW,240,0.0,-999.0,83,-99.99,,,0.00,weatherlink.com 1.10,2013-09-04 05:38:00,
2013-09-04 01:53:00,67.1,61.0,30.00,SW,233,1.0,-999.0,82,-99.99,,,0.00,weatherlink.com 1.10,2013-09-04 05:53:00,
2013-09-04 02:08:00,66.8,62.0,29.99,WSW,245,0.0,-999.0,83,-99.99,,,0.00,weatherlink.com 1.10,2013-09-04 06:08:00,
2013-09-04 02:23:00,66.3,61.0,29.99,WSW,243,0.0,-999.0,84,-99.99,,,0.00,weatherlink.com 1.10,2013-09-04 06:23:00,
2013-09-04 02:38:00,65.8,61.0,29.99,SW,232,0.0,-999.0,85,-99.99,,,0.00,weatherlink.com 1.10,2013-09-04 06:38:00,
2013-09-04 02:53:00,65.9,61.0,29.99,WSW,247,0.0,-999.0,85,-99.99,,,0.00,weatherlink.com 1.10,2013-09-04 06:53:00,
2013-09-04 03:08:00,65.9,61.0,29.99,WSW,239,0.0,-999.0,84,-99.99,,,0.00,weatherlink.com 1.10,2013-09-04 07:08:00,
2013-09-04 03:23:00,65.2,61.0,29.98,WSW,249,1.0,-999.0,86,-99.99,,,0.00,weatherlink.com 1.10,2013-09-04 07:23:00,
2013-09-04 03:38:00,65.2,61.0,29.98,WSW,252,0.0,-999.0,86,-99.99,,,0.00,weatherlink.com 1.10,2013-09-04 07:38:00,
2013-09-04 03:53:00,65.5,61.0,29.98,WSW,252,0.0,-999.0,85,-99.99,,,0.00,weatherlink.com 1.10,2013-09-04 07:53:00,
2013-09-04 04:08:00,65.7,61.0,29.98,WSW,239,0.0,-999.0,84,-99.99,,,0.00,weatherlink.com 1.10,2013-09-04 08:08:00,
2013-09-04 04:23:00,65.7,61.0,29.98,WSW,247,0.0,-999.0,84,-99.99,,,0.00,weatherlink.com 1.10,2013-09-04 08:23:00,
2013-09-04 04:38:00,65.6,61.0,29.98,SW,235,0.0,-999.0,85,-99.99,,,0.00,weatherlink.com 1.10,2013-09-04 08:38:00,
2013-09-04 04:53:00,65.4,61.0,29.99,WSW,237,0.0,-999.0,85,-99.99,,,0.00,weatherlink.com 1.10,2013-09-04 08:53:00,
2013-09-04 05:08:00,64.9,60.0,29.99,SW,235,0.0,-999.0,85,-99.99,,,0.00,weatherlink.com 1.10,2013-09-04 09:08:00,
2013-09-04 05:23:00,64.9,60.0,29.99,SW,231,0.0,-999.0,85,-99.99,,,0.00,weatherlink.com 1.10,2013-09-04 09:23:00,
2013-09-04 05:38:00,64.3,60.0,30.00,WSW,256,0.0,-999.0,86,-99.99,,,0.00,weatherlink.com 1.10,2013-09-04 09:38:00,
2013-09-04 05:53:00,63.8,60.0,30.00,West,262,2.0,-999.0,87,-99.99,,,0.00,weatherlink.com 1.10,2013-09-04 09:53:00,
2013-09-04 06:08:00,63.6,60.0,30.01,West,259,0.0,-999.0,88,-99.99,,,0.00,weatherlink.com 1.10,2013-09-04 10:08:00,
2013-09-04 06:23:00,63.6,60.0,30.02,WSW,257,0.0,-999.0,88,-99.99,,,0.00,weatherlink.com 1.10,2013-09-04 10:23:00,
2013-09-04 06:38:00,63.6,60.0,30.02,SW,224,0.0,-999.0,87,-99.99,,,0.00,weatherlink.com 1.10,2013-09-04 10:38:00,
2013-09-04 06:53:00,63.6,60.0,30.02,West,260,0.0,-999.0,87,-99.99,,,0.00,weatherlink.com 1.10,2013-09-04 10:53:00,
2013-09-04 07:08:00,63.8,60.0,30.03,West,260,0.0,-999.0,87,-99.99,,,0.00,weatherlink.com 1.10,2013-09-04 11:08:00,
2013-09-04 07:23:00,63.8,60.0,30.03,WSW,247,0.0,-999.0,86,-99.99,,,0.00,weatherlink.com 1.10,2013-09-04 11:23:00,
2013-09-04 07:38:00,64.0,60.0,30.04,WSW,238,0.0,-999.0,86,-99.99,,,0.00,weatherlink.com 1.10,2013-09-04 11:38:00,
2013-09-04 07:53:00,64.1,60.0,30.05,WSW,247,1.0,-999.0,86,-99.99,,,0.00,weatherlink.com 1.10,2013-09-04 11:53:00,
2013-09-04 08:08:00,64.5,60.0,30.05,WSW,243,0.0,-999.0,85,-99.99,,,0.00,weatherlink.com 1.10,2013-09-04 12:08:00,
2013-09-04 08:23:00,64.9,60.0,30.06,WSW,258,0.0,-999.0,85,-99.99,,,0.00,weatherlink.com 1.10,2013-09-04 12:23:00,
2013-09-04 08:38:00,65.6,61.0,30.06,WSW,256,0.0,-999.0,84,-99.99,,,0.00,weatherlink.com 1.10,2013-09-04 12:38:00,
2013-09-04 08:53:00,66.6,61.0,30.07,WSW,253,0.0,-999.0,83,-99.99,,,0.00,weatherlink.com 1.10,2013-09-04 12:53:00,
2013-09-04 09:08:00,67.4,62.0,30.07,WSW,253,0.0,-999.0,82,-99.99,,,0.00,weatherlink.com 1.10,2013-09-04 13:08:00,
2013-09-04 09:23:00,67.6,62.0,30.07,WSW,244,0.0,-999.0,82,-99.99,,,0.00,weatherlink.com 1.10,2013-09-04 13:23:00,
2013-09-04 09:38:00,68.0,62.0,30.07,WSW,244,0.0,-999.0,82,-99.99,,,0.00,weatherlink.com 1.10,2013-09-04 13:38:00,
2013-09-04 09:53:00,68.6,63.0,30.08,WSW,244,0.0,-999.0,81,-99.99,,,0.00,weatherlink.com 1.10,2013-09-04 13:53:00,
2013-09-04 10:08:00,69.7,63.0,30.08,WSW,244,0.0,-999.0,80,-99.99,,,0.00,weatherlink.com 1.10,2013-09-04 14:08:00,
2013-09-04 10:23:00,70.6,65.0,30.08,WSW,248,0.0,-999.0,81,-99.99,,,0.00,weatherlink.com 1.10,2013-09-04 14:23:00,
2013-09-04 10:38:00,69.5,65.0,30.09,SSW,211,0.0,-999.0,84,-99.99,,,0.00,weatherlink.com 1.10,2013-09-04 14:38:00,
2013-09-04 10:53:00,69.8,65.0,30.09,SSW,211,0.0,-999.0,84,-99.99,,,0.00,weatherlink.com 1.10,2013-09-04 14:53:00,
2013-09-04 11:08:00,70.8,65.0,30.09,WSW,253,0.0,-999.0,83,-99.99,,,0.00,weatherlink.com 1.10,2013-09-04 15:08:00,
2013-09-04 11:23:00,71.7,66.0,30.09,WSW,238,0.0,-999.0,82,-99.99,,,0.00,weatherlink.com 1.10,2013-09-04 15:23:00,
2013-09-04 11:38:00,72.1,66.0,30.09,SSE,164,0.0,-999.0,80,-99.99,,,0.00,weatherlink.com 1.10,2013-09-04 15:38:00,
2013-09-04 11:53:00,73.0,66.0,30.09,South,169,0.0,-999.0,79,-99.99,,,0.00,weatherlink.com 1.10,2013-09-04 15:53:00,
2013-09-04 12:08:00,73.8,67.0,30.09,South,189,0.0,-999.0,78,-99.99,,,0.00,weatherlink.com 1.10,2013-09-04 16:08:00,
2013-09-04 12:23:00,75.0,67.0,30.10,ENE,72,0.0,-999.0,76,-99.99,,,0.00,weatherlink.com 1.10,2013-09-04 16:23:00,
2013-09-04 12:38:00,76.9,67.0,30.09,NE,56,0.0,-999.0,72,-99.99,,,0.00,weatherlink.com 1.10,2013-09-04 16:38:00,
2013-09-04 12:53:00,77.3,65.0,30.09,West,278,0.0,-999.0,66,-99.99,,,0.00,weatherlink.com 1.10,2013-09-04 16:53:00,
2013-09-04 13:08:00,75.9,63.0,30.09,SW,230,1.0,-999.0,65,-99.99,,,0.00,weatherlink.com 1.10,2013-09-04 17:08:00,
2013-09-04 13:23:00,77.0,64.0,30.09,ESE,123,0.0,-999.0,65,-99.99,,,0.00,weatherlink.com 1.10,2013-09-04 17:23:00,
2013-09-04 13:38:00,75.4,67.0,30.08,NNW,343,0.0,-999.0,75,-99.99,,,0.00,weatherlink.com 1.10,2013-09-04 17:38:00,
2013-09-04 13:53:00,76.9,65.0,30.08,WSW,237,0.0,-999.0,67,-99.99,,,0.00,weatherlink.com 1.10,2013-09-04 17:53:00,
2013-09-04 14:08:00,78.4,66.0,30.07,WNW,295,0.0,-999.0,66,-99.99,,,0.00,weatherlink.com 1.10,2013-09-04 18:08:00,
2013-09-04 14:23:00,79.3,64.0,30.07,WNW,293,0.0,-999.0,60,-99.99,,,0.00,weatherlink.com 1.10,2013-09-04 18:23:00,
2013-09-04 14:38:00,79.3,63.0,30.07,SW,235,0.0,-999.0,58,-99.99,,,0.00,weatherlink.com 1.10,2013-09-04 18:38:00,
2013-09-04 14:53:00,80.5,64.0,30.07,SE,145,0.0,-999.0,58,-99.99,,,0.00,weatherlink.com 1.10,2013-09-04 18:53:00,
2013-09-04 15:08:00,80.2,67.0,30.07,WSW,258,0.0,-999.0,64,-99.99,,,0.00,weatherlink.com 1.10,2013-09-04 19:08:00,
2013-09-04 15:23:00,80.2,65.0,30.06,West,276,0.0,-999.0,60,-99.99,,,0.00,weatherlink.com 1.10,2013-09-04 19:23:00,
2013-09-04 15:38:00,81.0,65.0,30.06,WNW,287,0.0,-999.0,59,-99.99,,,0.00,weatherlink.com 1.10,2013-09-04 19:38:00,
2013-09-04 15:53:00,81.4,68.0,30.06,SSE,154,3.0,-999.0,63,-99.99,,,0.00,weatherlink.com 1.10,2013-09-04 19:53:00,
2013-09-04 16:08:00,81.3,66.0,30.05,WSW,240,0.0,-999.0,61,-99.99,,,0.00,weatherlink.com 1.10,2013-09-04 20:08:00,
2013-09-04 16:23:00,81.4,67.0,30.05,SW,231,0.0,-999.0,62,-99.99,,,0.00,weatherlink.com 1.10,2013-09-04 20:23:00,
2013-09-04 16:38:00,81.0,66.0,30.05,WSW,239,1.0,-999.0,61,-99.99,,,0.00,weatherlink.com 1.10,2013-09-04 20:38:00,
2013-09-04 16:53:00,80.3,66.0,30.05,East,81,1.0,-999.0,62,-99.99,,,0.00,weatherlink.com 1.10,2013-09-04 20:53:00,
2013-09-04 17:08:00,78.9,66.0,30.05,WSW,238,0.0,-999.0,64,-99.99,,,0.00,weatherlink.com 1.10,2013-09-04 21:08:00,
2013-09-04 17:23:00,78.1,65.0,30.04,WSW,244,0.0,-999.0,65,-99.99,,,0.00,weatherlink.com 1.10,2013-09-04 21:23:00,
2013-09-04 17:38:00,78.2,68.0,30.04,SE,141,0.0,-999.0,71,-99.99,,,0.00,weatherlink.com 1.10,2013-09-04 21:38:00,
2013-09-04 17:53:00,79.3,68.0,30.04,SSE,148,0.0,-999.0,69,-99.99,,,0.00,weatherlink.com 1.10,2013-09-04 21:53:00,
2013-09-04 18:08:00,78.4,67.0,30.04,SW,214,0.0,-999.0,68,-99.99,,,0.00,weatherlink.com 1.10,2013-09-04 22:08:00,
2013-09-04 18:23:00,79.0,67.0,30.04,SSW,194,0.0,-999.0,66,-99.99,,,0.00,weatherlink.com 1.10,2013-09-04 22:23:00,
2013-09-04 18:38:00,77.8,65.0,30.04,SSW,207,0.0,-999.0,65,-99.99,,,0.00,weatherlink.com 1.10,2013-09-04 22:38:00,
2013-09-04 18:53:00,77.1,64.0,30.04,SSW,207,0.0,-999.0,65,-99.99,,,0.00,weatherlink.com 1.10,2013-09-04 22:53:00,
2013-09-04 19:08:00,75.8,65.0,30.04,SSW,207,0.0,-999.0,69,-99.99,,,0.00,weatherlink.com 1.10,2013-09-04 23:08:00,
2013-09-04 19:23:00,74.2,67.0,30.04,SSW,207,0.0,-999.0,78,-99.99,,,0.00,weatherlink.com 1.10,2013-09-04 23:23:00,
2013-09-04 19:38:00,74.9,67.0,30.04,SW,230,0.0,-999.0,76,-99.99,,,0.00,weatherlink.com 1.10,2013-09-04 23:38:00,
2013-09-04 19:53:00,73.7,67.0,30.05,SW,233,0.0,-999.0,79,-99.99,,,0.00,weatherlink.com 1.10,2013-09-04 23:53:00,
2013-09-04 20:08:00,72.7,67.0,30.05,WSW,241,1.0,-999.0,83,-99.99,,,0.00,weatherlink.com 1.10,2013-09-05 00:08:00,
2013-09-04 20:23:00,71.6,67.0,30.05,WSW,248,0.0,-999.0,84,-99.99,,,0.00,weatherlink.com 1.10,2013-09-05 00:23:00,
2013-09-04 20:38:00,72.2,65.0,30.06,WSW,248,0.0,-999.0,79,-99.99,,,0.00,weatherlink.com 1.10,2013-09-05 00:38:00,
2013-09-04 20:53:00,70.9,65.0,30.06,WSW,252,0.0,-999.0,82,-99.99,,,0.00,weatherlink.com 1.10,2013-09-05 00:53:00,
2013-09-04 21:08:00,70.3,65.0,30.07,WSW,252,1.0,-999.0,83,-99.99,,,0.00,weatherlink.com 1.10,2013-09-05 01:08:00,
2013-09-04 21:23:00,69.9,65.0,30.07,WSW,245,0.0,-999.0,83,-99.99,,,0.00,weatherlink.com 1.10,2013-09-05 01:23:00,
2013-09-04 21:38:00,69.5,64.0,30.09,WSW,237,0.0,-999.0,83,-99.99,,,0.00,weatherlink.com 1.10,2013-09-05 01:38:00,
2013-09-04 21:53:00,69.2,64.0,30.09,WSW,237,0.0,-999.0,83,-99.99,,,0.00,weatherlink.com 1.10,2013-09-05 01:53:00,
2013-09-04 22:08:00,68.8,64.0,30.09,WSW,248,0.0,-999.0,83,-99.99,,,0.00,weatherlink.com 1.10,2013-09-05 02:08:00,
2013-09-04 22:23:00,68.3,63.0,30.10,WSW,244,0.0,-999.0,84,-99.99,,,0.00,weatherlink.com 1.10,2013-09-05 02:23:00,
2013-09-04 22:38:00,68.1,63.0,30.10,WSW,244,0.0,-999.0,84,-99.99,,,0.00,weatherlink.com 1.10,2013-09-05 02:38:00,
2013-09-04 22:53:00,68.1,63.0,30.10,SW,230,2.0,-999.0,84,-99.99,,,0.00,weatherlink.com 1.10,2013-09-05 02:53:00,
2013-09-04 23:08:00,67.6,63.0,30.11,WSW,239,0.0,-999.0,84,-99.99,,,0.00,weatherlink.com 1.10,2013-09-05 03:08:00,
2013-09-04 23:23:00,67.4,62.0,30.11,WSW,247,0.0,-999.0,84,-99.99,,,0.00,weatherlink.com 1.10,2013-09-05 03:23:00,
2013-09-04 23:38:00,67.8,63.0,30.12,WSW,243,0.0,-999.0,83,-99.99,,,0.00,weatherlink.com 1.10,2013-09-05 03:38:00,
2013-09-04 23:53:00,67.4,62.0,30.11,SW,226,1.0,-999.0,84,-99.99,,,0.00,weatherlink.com 1.10,2013-09-05 03:53:00,